createdAt,value
2023-02-14T00:01:26.623Z,3.60
2023-02-14T00:03:54.720Z,3.60
2023-02-14T00:06:22.306Z,3.50
2023-02-14T00:08:52.390Z,3.50
2023-02-14T00:11:21.001Z,3.50
2023-02-14T00:14:07.322Z,3.50
2023-02-14T00:16:35.010Z,3.50
2023-02-14T00:19:05.852Z,3.50
2023-02-14T00:21:38.820Z,3.50
2023-02-14T00:24:12.396Z,3.50
2023-02-14T00:26:40.412Z,3.50
2023-02-14T00:29:22.436Z,3.50
2023-02-14T00:31:51.748Z,3.50
2023-02-14T00:34:20.015Z,3.50
2023-02-14T00:36:48.397Z,3.50
2023-02-14T00:39:18.930Z,3.50
2023-02-14T00:41:46.762Z,3.40
2023-02-14T00:44:14.604Z,3.40
2023-02-14T00:46:42.345Z,3.30
2023-02-14T00:49:10.350Z,3.30
2023-02-14T00:51:39.806Z,3.30
2023-02-14T00:54:07.525Z,3.30
2023-02-14T00:56:35.480Z,3.30
2023-02-14T00:59:03.174Z,3.30
2023-02-14T01:01:31.521Z,3.30
2023-02-14T01:03:59.908Z,3.30
2023-02-14T01:06:27.777Z,3.30
2023-02-14T01:08:58.110Z,3.30
2023-02-14T01:11:26.956Z,3.30
2023-02-14T01:13:57.221Z,3.30
2023-02-14T01:16:28.300Z,3.20
2023-02-14T01:18:58.409Z,3.30
2023-02-14T01:21:30.310Z,3.30
2023-02-14T01:24:02.000Z,3.20
2023-02-14T01:26:30.644Z,3.30
2023-02-14T01:29:03.995Z,3.20
2023-02-14T01:31:34.433Z,3.20
2023-02-14T01:34:03.118Z,3.10
2023-02-14T01:36:38.142Z,3.00
2023-02-14T01:39:14.044Z,3.00
2023-02-14T01:41:43.996Z,2.90
2023-02-14T01:44:14.680Z,2.90
2023-02-14T01:46:45.340Z,2.80
2023-02-14T01:49:19.326Z,2.80
2023-02-14T01:51:56.022Z,2.80
2023-02-14T01:54:27.080Z,2.80
2023-02-14T01:56:59.519Z,2.80
2023-02-14T01:59:37.430Z,2.70
2023-02-14T02:02:06.317Z,2.70
2023-02-14T02:04:39.498Z,2.70
2023-02-14T02:07:13.787Z,2.70
2023-02-14T02:09:51.882Z,2.80
2023-02-14T02:12:19.998Z,2.80
2023-02-14T02:14:51.230Z,2.70
2023-02-14T02:17:33.890Z,2.70
2023-02-14T02:20:34.148Z,2.60
2023-02-14T02:23:48.216Z,2.50
2023-02-14T02:26:54.181Z,2.40
2023-02-14T02:29:42.063Z,2.30
2023-02-14T02:32:46.600Z,2.30
2023-02-14T02:35:42.131Z,2.20
2023-02-14T02:38:18.767Z,2.10
2023-02-14T02:41:07.783Z,2.00
2023-02-14T02:44:03.680Z,1.90
2023-02-14T02:46:51.459Z,1.80
2023-02-14T02:50:00.292Z,1.90
2023-02-14T02:53:03.766Z,1.90
2023-02-14T02:56:19.614Z,2.00
2023-02-14T02:59:18.461Z,2.10
2023-02-14T03:02:07.098Z,2.10
2023-02-14T03:04:53.916Z,2.10
2023-02-14T03:07:35.973Z,2.20
2023-02-14T03:10:19.304Z,2.20
2023-02-14T03:13:31.906Z,2.30
2023-02-14T03:16:25.995Z,2.40
2023-02-14T03:19:14.864Z,2.50
2023-02-14T03:21:58.520Z,2.60
2023-02-14T03:24:42.233Z,2.60
2023-02-14T03:27:14.136Z,2.70
2023-02-14T03:30:20.062Z,2.80
2023-02-14T03:33:13.688Z,2.80
2023-02-14T03:36:03.650Z,2.90
2023-02-14T03:38:39.487Z,2.90
2023-02-14T03:41:16.002Z,3.00
2023-02-14T03:43:49.852Z,3.00
2023-02-14T03:46:45.728Z,3.00
2023-02-14T03:49:20.196Z,3.10
2023-02-14T03:51:51.350Z,3.10
2023-02-14T03:54:22.070Z,3.10
2023-02-14T03:57:20.843Z,3.10
2023-02-14T03:59:48.882Z,3.10
2023-02-14T04:02:34.071Z,3.10
2023-02-14T04:05:08.741Z,3.10
2023-02-14T04:07:47.598Z,3.10
2023-02-14T04:10:16.797Z,3.10
2023-02-14T04:12:44.647Z,3.10
2023-02-14T04:15:13.656Z,3.10
2023-02-14T04:18:00.141Z,3.10
2023-02-14T04:20:28.737Z,3.10
2023-02-14T04:22:56.678Z,3.10
2023-02-14T04:25:24.507Z,3.10
2023-02-14T04:27:52.233Z,3.20
2023-02-14T04:30:22.752Z,3.20
2023-02-14T04:32:50.682Z,3.20
2023-02-14T04:35:18.479Z,3.20
2023-02-14T04:37:46.152Z,3.20
2023-02-14T04:40:17.241Z,3.20
2023-02-14T04:42:46.300Z,3.20
2023-02-14T04:45:14.498Z,3.30
2023-02-14T04:47:42.214Z,3.30
2023-02-14T04:50:10.481Z,3.30
2023-02-14T04:52:38.640Z,3.20
2023-02-14T04:55:07.250Z,3.10
2023-02-14T04:57:34.979Z,3.00
2023-02-14T05:00:03.817Z,2.90
2023-02-14T05:02:31.835Z,2.80
2023-02-14T05:04:59.465Z,2.80
2023-02-14T05:07:27.207Z,2.80
2023-02-14T05:09:54.900Z,2.70
2023-02-14T05:15:19.926Z,2.70
2023-02-14T05:17:47.656Z,2.60
2023-02-14T05:20:15.578Z,2.60
2023-02-14T05:22:43.395Z,2.50
2023-02-14T05:25:10.998Z,2.50
2023-02-14T05:27:38.702Z,2.50
2023-02-14T05:30:07.358Z,2.50
2023-02-14T05:32:35.092Z,2.50
2023-02-14T05:35:03.213Z,2.40
2023-02-14T05:37:30.849Z,2.30
2023-02-14T05:39:58.557Z,2.30
2023-02-14T05:42:26.186Z,2.30
2023-02-14T05:44:53.936Z,2.30
2023-02-14T05:47:21.572Z,2.30
2023-02-14T05:49:49.240Z,2.30
2023-02-14T05:52:17.071Z,2.30
2023-02-14T05:54:44.848Z,2.30
2023-02-14T05:57:12.480Z,2.20
2023-02-14T05:59:40.198Z,2.20
2023-02-14T06:02:07.920Z,2.20
2023-02-14T06:04:35.739Z,2.20
2023-02-14T06:07:03.543Z,2.20
2023-02-14T06:09:31.380Z,2.10
2023-02-14T06:11:59.074Z,2.10
2023-02-14T06:14:26.910Z,2.00
2023-02-14T06:16:54.631Z,2.00
2023-02-14T06:19:22.514Z,2.10
2023-02-14T06:21:50.191Z,2.00
2023-02-14T06:24:17.910Z,1.90
2023-02-14T06:26:45.506Z,2.00
2023-02-14T06:29:13.162Z,1.90
2023-02-14T06:31:40.958Z,1.90
2023-02-14T06:34:09.097Z,1.90
2023-02-14T06:36:36.916Z,1.80
2023-02-14T06:39:04.934Z,1.80
2023-02-14T06:41:32.565Z,1.80
2023-02-14T06:44:00.320Z,1.70
2023-02-14T06:46:28.068Z,1.70
2023-02-14T06:48:55.779Z,1.70
2023-02-14T06:51:23.512Z,1.60
2023-02-14T06:53:51.225Z,1.60
2023-02-14T06:56:18.820Z,1.60
2023-02-14T06:58:46.553Z,1.60
2023-02-14T07:01:14.193Z,1.60
2023-02-14T07:03:42.592Z,1.60
2023-02-14T07:06:10.329Z,1.60
2023-02-14T07:08:37.999Z,1.60
2023-02-14T07:11:05.771Z,1.60
2023-02-14T07:13:33.648Z,1.70
2023-02-14T07:16:01.310Z,1.70
2023-02-14T07:18:29.072Z,1.60
2023-02-14T07:20:56.886Z,1.70
2023-02-14T07:23:24.534Z,1.70
2023-02-14T07:25:52.240Z,1.70
2023-02-14T07:28:19.942Z,1.70
2023-02-14T07:30:47.943Z,1.70
2023-02-14T07:33:15.852Z,1.60
2023-02-14T07:35:43.553Z,1.60
2023-02-14T07:38:11.166Z,1.60
2023-02-14T07:40:38.867Z,1.60
2023-02-14T07:43:08.055Z,1.70
2023-02-14T07:45:35.785Z,1.70
2023-02-14T07:48:04.343Z,1.70
2023-02-14T07:50:32.091Z,1.80
2023-02-14T07:52:59.875Z,2.00
2023-02-14T07:55:27.578Z,2.00
2023-02-14T07:57:55.254Z,2.10
2023-02-14T08:00:23.353Z,2.20
2023-02-14T08:02:51.007Z,2.30
2023-02-14T08:05:19.076Z,2.40
2023-02-14T08:07:46.765Z,2.50
2023-02-14T08:10:15.317Z,2.60
2023-02-14T08:13:01.280Z,2.70
2023-02-14T08:15:50.176Z,2.80
2023-02-14T08:18:19.083Z,3.00
2023-02-14T08:20:50.853Z,3.10
2023-02-14T08:23:19.937Z,3.30
2023-02-14T08:25:51.701Z,3.30
2023-02-14T08:28:21.914Z,3.50
2023-02-14T08:30:50.192Z,3.60
2023-02-14T08:33:18.837Z,3.70
2023-02-14T08:35:46.907Z,3.80
2023-02-14T08:38:14.568Z,3.90
2023-02-14T08:40:42.804Z,4.00
2023-02-14T08:43:11.160Z,4.10
2023-02-14T08:45:39.695Z,4.20
2023-02-14T08:48:11.513Z,4.30
2023-02-14T08:50:40.383Z,4.40
2023-02-14T08:53:13.518Z,4.50
2023-02-14T08:55:41.403Z,4.60
2023-02-14T08:58:09.175Z,4.70
2023-02-14T09:00:36.907Z,4.80
2023-02-14T09:03:04.755Z,4.80
2023-02-14T09:05:33.954Z,4.90
2023-02-14T09:08:03.342Z,5.00
2023-02-14T09:10:31.121Z,5.00
2023-02-14T09:12:58.775Z,5.10
2023-02-14T09:15:26.596Z,5.20
2023-02-14T09:17:54.373Z,5.20
2023-02-14T09:20:22.357Z,5.30
2023-02-14T09:22:50.001Z,5.40
2023-02-14T09:25:17.966Z,5.50
2023-02-14T09:27:45.695Z,5.60
2023-02-14T09:30:14.257Z,5.70
2023-02-14T09:32:41.860Z,5.80
2023-02-14T09:35:28.100Z,6.00
2023-02-14T09:37:55.828Z,6.10
2023-02-14T09:40:24.097Z,6.30
2023-02-14T09:43:46.651Z,6.40
2023-02-14T09:46:16.405Z,6.50
2023-02-14T09:48:47.944Z,6.60
2023-02-14T09:51:25.375Z,6.80
2023-02-14T09:54:02.712Z,6.80
2023-02-14T09:56:57.706Z,7.00
2023-02-14T09:59:50.013Z,7.10
2023-02-14T10:02:49.168Z,7.30
2023-02-14T10:05:38.632Z,7.50
2023-02-14T10:08:25.105Z,7.60
2023-02-14T10:11:10.850Z,7.80
2023-02-14T10:13:48.817Z,7.90
2023-02-14T10:16:36.008Z,7.90
2023-02-14T10:19:26.466Z,7.90
2023-02-14T10:22:00.516Z,7.90
2023-02-14T10:24:37.889Z,8.10
2023-02-14T10:27:31.084Z,8.10
2023-02-14T10:29:59.456Z,8.30
2023-02-14T10:32:43.402Z,8.50
2023-02-14T10:35:24.032Z,8.70
2023-02-14T10:38:06.837Z,8.80
2023-02-14T10:40:49.473Z,9.00
2023-02-14T10:43:49.354Z,9.10
2023-02-14T10:46:24.569Z,9.10
2023-02-14T10:49:27.637Z,9.20
2023-02-14T10:52:16.435Z,9.30
2023-02-14T10:54:58.400Z,9.40
2023-02-14T10:57:35.961Z,9.50
2023-02-14T11:00:30.840Z,9.60
2023-02-14T11:03:01.611Z,9.70
2023-02-14T11:05:37.045Z,9.80
2023-02-14T11:08:23.074Z,10.00
2023-02-14T11:10:50.963Z,10.00
2023-02-14T11:13:35.600Z,10.00
2023-02-14T11:16:11.613Z,10.10
2023-02-14T11:18:41.407Z,10.30
2023-02-14T11:21:24.170Z,10.40
2023-02-14T11:23:52.235Z,10.60
2023-02-14T11:26:31.638Z,10.70
2023-02-14T11:29:12.523Z,10.80
2023-02-14T11:31:42.060Z,11.00
2023-02-14T11:34:37.263Z,11.00
2023-02-14T11:37:25.851Z,11.10
2023-02-14T11:39:59.919Z,11.00
2023-02-14T11:42:43.973Z,11.10
2023-02-14T11:45:37.164Z,11.30
2023-02-14T11:48:20.008Z,11.50
2023-02-14T11:50:58.089Z,11.60
2023-02-14T11:53:29.673Z,11.80
2023-02-14T11:56:00.794Z,11.70
2023-02-14T11:58:34.560Z,11.80
2023-02-14T12:01:03.140Z,11.70
2023-02-14T12:03:45.603Z,11.90
2023-02-14T12:06:28.236Z,11.90
2023-02-14T12:09:11.418Z,11.90
2023-02-14T12:11:39.530Z,12.00
2023-02-14T12:14:22.094Z,12.00
2023-02-14T12:17:10.308Z,12.10
2023-02-14T12:19:54.600Z,12.10
2023-02-14T12:22:42.619Z,12.00
2023-02-14T12:25:24.315Z,12.10
2023-02-14T12:28:05.484Z,12.10
2023-02-14T12:30:34.779Z,12.00
2023-02-14T12:33:02.644Z,12.00
2023-02-14T12:35:47.232Z,12.10
2023-02-14T12:38:55.012Z,12.10
2023-02-14T12:42:16.054Z,12.20
2023-02-14T12:45:04.955Z,12.00
2023-02-14T12:47:47.054Z,12.10
2023-02-14T12:50:29.779Z,12.10
2023-02-14T12:53:42.850Z,12.20
2023-02-14T12:56:46.509Z,12.20
2023-02-14T13:00:15.098Z,12.20
2023-02-14T13:02:58.320Z,12.30
2023-02-14T13:05:42.088Z,12.40
2023-02-14T13:08:36.761Z,12.40
2023-02-14T13:12:00.450Z,12.50
2023-02-14T13:14:40.729Z,12.50
2023-02-14T13:17:17.357Z,12.60
2023-02-14T13:19:54.767Z,12.70
2023-02-14T13:22:25.693Z,12.70
2023-02-14T13:25:00.168Z,12.70
2023-02-14T13:27:32.905Z,12.90
2023-02-14T13:30:18.643Z,12.90
2023-02-14T13:32:48.578Z,13.00
2023-02-14T13:35:18.913Z,13.10
2023-02-14T13:37:53.532Z,13.10
2023-02-14T13:40:24.137Z,13.30
2023-02-14T13:42:59.467Z,13.40
2023-02-14T13:45:30.546Z,13.50
2023-02-14T13:48:22.941Z,13.60
2023-02-14T13:51:19.216Z,13.70
2023-02-14T13:53:48.734Z,13.90
2023-02-14T13:56:16.342Z,13.90
2023-02-14T13:58:55.197Z,14.00
2023-02-14T14:01:35.793Z,14.00
2023-02-14T14:04:26.100Z,14.10
2023-02-14T14:07:03.025Z,14.20
2023-02-14T14:09:42.785Z,14.30
2023-02-14T14:12:28.948Z,14.40
2023-02-14T14:15:05.922Z,14.60
2023-02-14T14:17:35.335Z,14.80
2023-02-14T14:20:16.548Z,14.90
2023-02-14T14:22:58.302Z,15.00
2023-02-14T14:25:32.910Z,15.20
2023-02-14T14:28:01.289Z,15.30
2023-02-14T14:30:33.563Z,15.40
2023-02-14T14:33:16.994Z,15.40
2023-02-14T14:36:10.245Z,15.50
2023-02-14T14:38:53.655Z,15.60
2023-02-14T14:41:29.150Z,15.50
2023-02-14T14:43:58.658Z,15.40
2023-02-14T14:46:26.497Z,15.20
2023-02-14T14:48:56.496Z,14.80
2023-02-14T14:51:33.600Z,14.60
2023-02-14T14:54:08.227Z,14.40
2023-02-14T14:56:44.783Z,14.20
2023-02-14T14:59:35.571Z,13.80
2023-02-14T15:02:07.125Z,13.60
2023-02-14T15:04:36.035Z,13.40
2023-02-14T15:07:49.000Z,13.20
2023-02-14T15:10:28.945Z,13.10
2023-02-14T15:13:18.030Z,13.10
2023-02-14T15:15:51.371Z,13.00
2023-02-14T15:18:20.748Z,13.00
2023-02-14T15:20:53.049Z,12.90
2023-02-14T15:23:24.586Z,12.90
2023-02-14T15:25:52.736Z,12.80
2023-02-14T15:28:35.496Z,12.80
2023-02-14T15:31:06.334Z,12.70
2023-02-14T15:33:35.145Z,12.70
2023-02-14T15:36:08.318Z,12.70
2023-02-14T15:38:40.028Z,12.60
2023-02-14T15:41:08.501Z,12.60
2023-02-14T15:43:40.900Z,12.60
2023-02-14T15:46:34.488Z,12.40
2023-02-14T15:49:11.235Z,12.30
2023-02-14T15:51:40.045Z,12.20
2023-02-14T15:54:20.176Z,12.10
2023-02-14T15:56:52.695Z,12.00
2023-02-14T15:59:25.884Z,12.00
2023-02-14T16:01:57.138Z,11.80
2023-02-14T16:04:28.708Z,11.70
2023-02-14T16:07:29.821Z,11.70
2023-02-14T16:10:36.256Z,11.50
2023-02-14T16:13:12.750Z,11.40
2023-02-14T16:16:00.094Z,11.30
2023-02-14T16:18:47.936Z,11.20
2023-02-14T16:21:20.331Z,11.10
2023-02-14T16:24:07.605Z,11.10
2023-02-14T16:26:40.692Z,11.00
2023-02-14T16:29:12.037Z,11.00
2023-02-14T16:32:06.146Z,10.90
2023-02-14T16:34:34.298Z,10.80
2023-02-14T16:37:30.785Z,10.70
2023-02-14T16:40:01.152Z,10.60
2023-02-14T16:42:29.353Z,10.40
2023-02-14T16:44:58.073Z,10.30
2023-02-14T16:47:27.927Z,10.20
2023-02-14T16:49:55.735Z,10.00
2023-02-14T16:52:26.811Z,9.90
2023-02-14T16:54:54.606Z,9.80
2023-02-14T16:57:33.330Z,9.70
2023-02-14T17:00:01.131Z,9.70
2023-02-14T17:02:30.500Z,9.50
2023-02-14T17:04:58.266Z,9.40
2023-02-14T17:07:29.570Z,9.30
2023-02-14T17:10:04.070Z,9.20
2023-02-14T17:12:37.030Z,9.10
2023-02-14T17:15:12.630Z,9.00
2023-02-14T17:17:40.592Z,9.00
2023-02-14T17:20:09.127Z,8.80
2023-02-14T17:22:39.698Z,8.80
2023-02-14T17:25:07.531Z,8.70
2023-02-14T17:27:35.498Z,8.60
2023-02-14T17:30:04.195Z,8.50
2023-02-14T17:32:31.945Z,8.40
2023-02-14T17:35:01.105Z,8.30
2023-02-14T17:37:29.502Z,8.20
2023-02-14T17:39:57.212Z,8.10
2023-02-14T17:42:24.817Z,8.10
2023-02-14T17:44:52.582Z,8.00
2023-02-14T17:47:20.382Z,7.90
2023-02-14T17:49:48.095Z,7.90
2023-02-14T17:52:16.345Z,7.80
2023-02-14T17:54:44.421Z,7.80
2023-02-14T17:57:12.800Z,7.70
2023-02-14T17:59:40.518Z,7.60
2023-02-14T18:02:09.550Z,7.60
2023-02-14T18:04:37.464Z,7.60
2023-02-14T18:07:05.988Z,7.60
2023-02-14T18:09:33.749Z,7.50
2023-02-14T18:12:01.413Z,7.40
2023-02-14T18:14:29.079Z,7.30
2023-02-14T18:16:56.863Z,7.20
2023-02-14T18:19:24.724Z,7.10
2023-02-14T18:21:53.529Z,7.00
2023-02-14T18:24:21.441Z,6.90
2023-02-14T18:26:49.197Z,6.70
2023-02-14T18:29:17.232Z,6.60
2023-02-14T18:31:45.139Z,6.60
2023-02-14T18:34:13.206Z,6.50
2023-02-14T18:36:42.049Z,6.50
2023-02-14T18:39:10.586Z,6.50
2023-02-14T18:41:38.418Z,6.50
2023-02-14T18:44:07.037Z,6.50
2023-02-14T18:46:36.105Z,6.60
2023-02-14T18:49:07.033Z,6.50
2023-02-14T18:51:39.437Z,6.50
2023-02-14T18:54:08.025Z,6.40
2023-02-14T18:56:38.296Z,6.40
2023-02-14T18:59:09.134Z,6.30
2023-02-14T19:01:42.102Z,6.20
2023-02-14T19:04:12.317Z,5.90
2023-02-14T19:06:42.219Z,5.90
2023-02-14T19:09:13.377Z,5.80
2023-02-14T19:11:41.902Z,5.70
2023-02-14T19:14:10.723Z,5.70
2023-02-14T19:16:44.089Z,5.70
2023-02-14T19:19:12.071Z,5.60
2023-02-14T19:21:40.512Z,5.50
2023-02-14T19:24:08.403Z,5.60
2023-02-14T19:26:41.020Z,5.60
2023-02-14T19:29:15.666Z,5.50
2023-02-14T19:31:54.940Z,5.30
2023-02-14T19:34:29.175Z,5.20
2023-02-14T19:37:00.528Z,5.20
2023-02-14T19:39:31.805Z,5.20
2023-02-14T19:42:00.190Z,5.10
2023-02-14T19:44:29.476Z,5.00
2023-02-14T19:47:00.030Z,5.00
2023-02-14T19:49:29.102Z,4.90
2023-02-14T19:51:57.611Z,4.90
2023-02-14T19:54:25.796Z,4.90
2023-02-14T19:56:55.430Z,4.80
2023-02-14T19:59:23.306Z,4.80
2023-02-14T20:01:53.772Z,4.80
2023-02-14T20:04:25.025Z,4.80
2023-02-14T20:06:54.854Z,4.70
2023-02-14T20:09:23.735Z,4.80
2023-02-14T20:11:57.059Z,4.70
2023-02-14T20:14:28.980Z,4.70
2023-02-14T20:17:07.582Z,4.70
2023-02-14T20:19:37.084Z,4.70
2023-02-14T20:22:05.017Z,4.70
2023-02-14T20:24:32.757Z,4.70
2023-02-14T20:27:00.608Z,4.70
2023-02-14T20:29:28.735Z,4.70
2023-02-14T20:32:00.039Z,4.60
2023-02-14T20:34:28.283Z,4.40
2023-02-14T20:36:56.348Z,4.40
2023-02-14T20:39:33.235Z,4.30
2023-02-14T20:42:02.559Z,4.30
2023-02-14T20:44:31.104Z,4.20
2023-02-14T20:46:58.804Z,4.10
2023-02-14T20:49:28.345Z,4.20
2023-02-14T20:51:56.914Z,4.20
2023-02-14T20:54:27.289Z,4.20
2023-02-14T20:56:55.944Z,4.20
2023-02-14T20:59:28.247Z,4.20
2023-02-14T21:01:59.550Z,4.10
2023-02-14T21:04:28.831Z,4.00
2023-02-14T21:06:57.854Z,4.00
2023-02-14T21:09:25.613Z,4.10
2023-02-14T21:11:54.025Z,4.10
2023-02-14T21:14:21.881Z,4.00
2023-02-14T21:16:49.607Z,3.90
2023-02-14T21:19:17.683Z,3.90
2023-02-14T21:21:45.717Z,3.80
2023-02-14T21:24:15.718Z,3.70
2023-02-14T21:26:43.935Z,3.70
2023-02-14T21:29:11.897Z,3.50
2023-02-14T21:31:39.799Z,3.60
2023-02-14T21:34:07.596Z,3.60
2023-02-14T21:36:36.032Z,3.50
2023-02-14T21:39:05.974Z,3.40
2023-02-14T21:41:35.644Z,3.50
2023-02-14T21:44:04.885Z,3.40
2023-02-14T21:46:38.384Z,3.40
2023-02-14T21:49:25.535Z,3.40
2023-02-14T21:51:53.327Z,3.40
2023-02-14T21:54:20.950Z,3.40
2023-02-14T21:56:49.906Z,3.40
2023-02-14T21:59:17.900Z,3.40
2023-02-14T22:01:45.929Z,3.40
2023-02-14T22:04:13.775Z,3.40
2023-02-14T22:06:43.016Z,3.30
2023-02-14T22:09:14.144Z,3.30
2023-02-14T22:11:42.075Z,3.30
2023-02-14T22:14:09.993Z,3.30
2023-02-14T22:16:38.181Z,3.30
2023-02-14T22:19:08.160Z,3.40
2023-02-14T22:21:36.214Z,3.30
2023-02-14T22:24:04.212Z,3.20
2023-02-14T22:26:40.995Z,3.10
2023-02-14T22:29:12.630Z,3.20
2023-02-14T22:31:44.355Z,3.10
2023-02-14T22:34:14.891Z,3.10
2023-02-14T22:36:42.686Z,3.00
2023-02-14T22:39:15.943Z,2.90
2023-02-14T22:41:44.622Z,2.90
2023-02-14T22:44:13.624Z,2.90
2023-02-14T22:46:42.091Z,2.90
2023-02-14T22:49:09.774Z,2.90
2023-02-14T22:51:42.853Z,2.90
2023-02-14T22:54:14.291Z,2.90
2023-02-14T22:56:45.598Z,2.90
2023-02-14T22:59:23.867Z,2.80
2023-02-14T23:01:53.525Z,2.90
2023-02-14T23:04:24.965Z,2.90
2023-02-14T23:06:53.664Z,2.90
2023-02-14T23:09:23.392Z,2.80
2023-02-14T23:11:52.015Z,2.80
2023-02-14T23:14:38.554Z,2.80
2023-02-14T23:17:18.656Z,2.70
2023-02-14T23:20:05.121Z,2.70
2023-02-14T23:22:35.549Z,2.60
2023-02-14T23:25:10.766Z,2.70
2023-02-14T23:27:41.282Z,2.60
2023-02-14T23:30:13.498Z,2.60
2023-02-14T23:32:41.458Z,2.60
2023-02-14T23:35:09.760Z,2.50
2023-02-14T23:37:37.576Z,2.40
2023-02-14T23:40:06.744Z,2.40
2023-02-14T23:42:34.502Z,2.30
2023-02-14T23:45:21.166Z,2.20
2023-02-14T23:47:49.025Z,2.20
2023-02-14T23:50:16.790Z,2.20
2023-02-14T23:52:44.747Z,2.20
2023-02-14T23:55:13.095Z,2.30
2023-02-14T23:57:40.873Z,2.20
